Middletown, OH

10:11 AM EDT on April 24, 2017 (GMT -0400)
Hook Field Municipal

Weather History for KMWO - December, 2013

Change the Weather History Date:

Wednesday, December 25, 2013

  Actual Average (KFFO) Record (KFFO)
Temperature  
Mean Temperature 25 °F -  
Max Temperature 32 °F 35 °F 52 °F (2015)
Min Temperature 18 °F 20 °F -13 °F (2004)
Degree Days  
Heating Degree Days 40    
Moisture  
Dew Point 13 °F    
Average Humidity 57    
Maximum Humidity 71    
Minimum Humidity 41    
Precipitation  
Precipitation 0.00 in - - ()
Sea Level Pressure  
Sea Level Pressure 30.35 in    
Wind  
Wind Speed 5 mph (SSW)    
Max Wind Speed 14 mph    
Max Gust Speed 17 mph    
Visibility 10 miles    
Events      
Averages and records for this station are not official NWS values.
T = Trace of Precipitation, MM = Missing Value Source: NWS Daily Summary

Daily Weather History Graph

Daily Weather History Graph

Search for Another Location

Airport or City:

Trip Planner

Search our weather history database for the weather conditions in past years. The results will help you decide how hot, cold, wet, or windy it might be!

Date:

Astronomy

Dec. 25, 2013 Rise Set
Actual Time 7:56 AM EST 5:19 PM EST
Civil Twilight 7:26 AM EST 5:49 PM EST
Nautical Twilight 6:52 AM EST 6:23 PM EST
Astronomical Twilight 6:19 AM EST 6:56 PM EST
Moon 12:24 AM EST (12/25) 12:21 PM EST (12/25)
Length of Visible Light 10h 23m
Length of Day
9h 23m
Waning Gibbous, 49% of the Moon is Illuminated
Dec 25
Waning Gibbous
Jan 1
New
Jan 7
First Quarter
Jan 15
Full
Jan 24
Last Quarter

Hourly Weather History & Observations

Time (EST) Temp. Windchill Dew Point Humidity Pressure Visibility Wind Dir Wind Speed Gust Speed Precip Events Conditions
12:15 AM 18.5 °F - 10.4 °F 71% 30.51 in 10.0 mi Calm Calm - N/A   Clear
12:35 AM 18.9 °F 13.7 °F 10.4 °F 70% 30.50 in 10.0 mi SE 3.5 mph - N/A   Clear
12:55 AM 19.0 °F 13.9 °F 9.7 °F 67% 30.50 in 10.0 mi ESE 3.5 mph - N/A   Clear
1:15 AM 19.2 °F - 9.5 °F 66% 30.49 in 10.0 mi Calm Calm - N/A   Clear
1:35 AM 19.4 °F 14.3 °F 9.5 °F 65% 30.47 in 10.0 mi SE 3.5 mph - N/A   Clear
1:55 AM 19.4 °F 10.4 °F 9.7 °F 66% 30.47 in 10.0 mi SE 6.9 mph - N/A   Scattered Clouds
2:15 AM 19.4 °F 8.6 °F 10.4 °F 68% 30.47 in 10.0 mi SE 9.2 mph - N/A   Scattered Clouds
2:35 AM 20.1 °F 15.2 °F 10.6 °F 67% 30.48 in 10.0 mi SE 3.5 mph - N/A   Scattered Clouds
2:55 AM 20.3 °F 15.4 °F 10.9 °F 67% 30.48 in 10.0 mi SE 3.5 mph - N/A   Mostly Cloudy
3:15 AM 20.3 °F 13.8 °F 10.8 °F 67% 30.49 in 10.0 mi SE 4.6 mph - N/A   Overcast
3:35 AM 20.3 °F 12.5 °F 10.9 °F 67% 30.48 in 10.0 mi ESE 5.8 mph - N/A   Mostly Cloudy
3:55 AM 20.3 °F 13.8 °F 10.8 °F 67% 30.48 in 10.0 mi ESE 4.6 mph - N/A   Scattered Clouds
4:15 AM 20.3 °F 12.5 °F 11.1 °F 68% 30.47 in 10.0 mi SSE 5.8 mph - N/A   Clear
4:35 AM 20.3 °F 13.8 °F 11.1 °F 68% 30.48 in 10.0 mi SE 4.6 mph - N/A   Clear
4:55 AM 20.3 °F 12.5 °F 11.3 °F 68% 30.47 in 10.0 mi SE 5.8 mph - N/A   Scattered Clouds
5:15 AM 20.3 °F 12.5 °F 11.1 °F 68% 30.46 in 10.0 mi SE 5.8 mph - N/A   Scattered Clouds
5:35 AM 20.3 °F 12.5 °F 10.8 °F 67% 30.46 in 10.0 mi SE 5.8 mph - N/A   Clear
5:55 AM 20.3 °F 11.5 °F 10.8 °F 67% 30.46 in 10.0 mi SSE 6.9 mph - N/A   Clear
6:15 AM 20.3 °F 12.5 °F 10.9 °F 67% 30.45 in 10.0 mi SSE 5.8 mph - N/A   Clear
6:35 AM 20.3 °F 11.5 °F 10.8 °F 67% 30.44 in 10.0 mi SE 6.9 mph - N/A   Scattered Clouds
6:55 AM 20.5 °F 12.8 °F 10.8 °F 66% 30.44 in 10.0 mi SSE 5.8 mph - N/A   Clear
7:15 AM 20.7 °F 13.0 °F 10.4 °F 65% 30.45 in 10.0 mi South 5.8 mph - N/A   Scattered Clouds
7:35 AM 21.0 °F 10.6 °F 10.2 °F 63% 30.45 in 10.0 mi South 9.2 mph - N/A   Mostly Cloudy
7:55 AM 21.0 °F 11.4 °F 9.5 °F 61% 30.45 in 10.0 mi South 8.1 mph - N/A   Overcast
8:15 AM 21.0 °F 11.4 °F 9.5 °F 61% 30.44 in 10.0 mi South 8.1 mph - N/A   Overcast
8:35 AM 21.2 °F 12.6 °F 9.5 °F 61% 30.44 in 10.0 mi South 6.9 mph - N/A   Overcast
8:55 AM 21.6 °F 13.0 °F 9.5 °F 60% 30.43 in 10.0 mi South 6.9 mph - N/A   Overcast
9:15 AM 21.7 °F 12.3 °F 8.8 °F 57% 30.43 in 10.0 mi South 8.1 mph - N/A   Overcast
9:35 AM 22.8 °F 16.7 °F 10.0 °F 58% 30.43 in 10.0 mi South 4.6 mph - N/A   Overcast
9:55 AM 23.2 °F 14.1 °F 9.1 °F 55% 30.44 in 10.0 mi South 8.1 mph - N/A   Overcast
10:15 AM 23.7 °F 13.3 °F 9.5 °F 55% 30.42 in 10.0 mi South 10.4 mph - N/A   Overcast
10:35 AM 25.3 °F 14.7 °F 10.8 °F 54% 30.42 in 10.0 mi South 11.5 mph - N/A   Overcast
10:55 AM 25.3 °F 15.3 °F 9.5 °F 51% 30.41 in 10.0 mi South 10.4 mph - N/A   Overcast
11:15 AM 27.9 °F 17.3 °F 11.3 °F 50% 30.39 in 10.0 mi South 12.7 mph - N/A   Mostly Cloudy
11:35 AM 27.9 °F 16.8 °F 9.9 °F 47% 30.37 in 10.0 mi SSW 13.8 mph - N/A   Scattered Clouds
11:55 AM 27.9 °F 17.3 °F 9.5 °F 46% 30.36 in 10.0 mi South 12.7 mph 17.3 mph N/A   Mostly Cloudy
12:15 PM 30.2 °F 20.2 °F 9.7 °F 42% 30.34 in 10.0 mi SSW 12.7 mph - N/A   Overcast
12:35 PM 30.2 °F 20.8 °F 9.0 °F 41% 30.32 in 10.0 mi SSW 11.5 mph - N/A   Mostly Cloudy
12:55 PM 29.3 °F 20.2 °F 8.8 °F 42% 30.31 in 10.0 mi SSW 10.4 mph - N/A   Overcast
1:15 PM 29.7 °F 19.6 °F 9.1 °F 42% 30.30 in 10.0 mi SW 12.7 mph - N/A   Overcast
1:35 PM 30.2 °F 22.6 °F 10.2 °F 43% 30.30 in 10.0 mi SSW 8.1 mph - N/A   Overcast
1:55 PM 30.6 °F 21.2 °F 9.3 °F 41% 30.28 in 10.0 mi SSW 11.5 mph - N/A   Overcast
2:15 PM 32.5 °F 26.2 °F 11.8 °F 42% 30.28 in 10.0 mi SSW 6.9 mph - N/A   Overcast
2:35 PM 32.5 °F 25.5 °F 13.3 °F 45% 30.28 in 10.0 mi SW 8.1 mph - N/A   Overcast
2:55 PM 32.5 °F 27.1 °F 12.6 °F 44% 30.27 in 10.0 mi WSW 5.8 mph - N/A   Overcast
3:15 PM 32.5 °F 25.5 °F 11.1 °F 41% 30.27 in 10.0 mi WSW 8.1 mph - N/A   Overcast
3:35 PM 32.5 °F 27.1 °F 11.5 °F 42% 30.27 in 10.0 mi WSW 5.8 mph - N/A   Overcast
3:55 PM 32.5 °F 27.1 °F 12.4 °F 43% 30.27 in 10.0 mi WSW 5.8 mph - N/A   Overcast
4:15 PM 32.5 °F 26.2 °F 13.3 °F 45% 30.27 in 10.0 mi SW 6.9 mph - N/A   Overcast
4:35 PM 32.5 °F 25.5 °F 13.5 °F 45% 30.26 in 10.0 mi SSW 8.1 mph - N/A   Overcast
4:55 PM 32.5 °F 26.2 °F 14.2 °F 47% 30.26 in 10.0 mi WSW 6.9 mph - N/A   Overcast
5:15 PM 32.5 °F 27.1 °F 14.2 °F 47% 30.26 in 10.0 mi WSW 5.8 mph - N/A   Overcast
5:35 PM 32.5 °F 28.1 °F 14.9 °F 48% 30.26 in 10.0 mi WSW 4.6 mph - N/A   Overcast
5:55 PM 32.5 °F 29.3 °F 14.9 °F 48% 30.25 in 10.0 mi SSW 3.5 mph - N/A   Overcast
6:15 PM 32.5 °F 28.1 °F 16.5 °F 52% 30.25 in 10.0 mi West 4.6 mph - N/A   Overcast
6:35 PM 32.5 °F 29.3 °F 16.5 °F 52% 30.25 in 10.0 mi WSW 3.5 mph - N/A   Overcast
6:55 PM 32.5 °F - 17.4 °F 54% 30.26 in 10.0 mi Calm Calm - N/A   Overcast
7:15 PM 32.5 °F - 18.0 °F 55% 30.25 in 10.0 mi Calm Calm - N/A   Overcast
7:35 PM 32.5 °F 29.3 °F 18.1 °F 55% 30.25 in 10.0 mi SW 3.5 mph - N/A   Overcast
7:55 PM 32.5 °F 29.3 °F 20.7 °F 62% 30.25 in 10.0 mi SW 3.5 mph - N/A   Overcast
8:15 PM 32.5 °F 28.1 °F 20.5 °F 61% 30.25 in 10.0 mi SW 4.6 mph - N/A   Overcast
8:35 PM 32.5 °F 27.1 °F 20.5 °F 61% 30.24 in 10.0 mi SSW 5.8 mph - N/A   Overcast
8:55 PM 32.5 °F 28.1 °F 21.2 °F 63% 30.24 in 10.0 mi SW 4.6 mph - N/A   Overcast
9:15 PM 32.5 °F 28.1 °F 20.3 °F 61% 30.24 in 10.0 mi WSW 4.6 mph - N/A   Overcast
9:35 PM 32.5 °F 28.1 °F 21.0 °F 63% 30.23 in 10.0 mi WSW 4.6 mph - N/A   Overcast
9:55 PM 32.5 °F 28.1 °F 20.7 °F 62% 30.23 in 10.0 mi SW 4.6 mph - N/A   Overcast
10:15 PM 32.5 °F 27.1 °F 20.5 °F 61% 30.22 in 10.0 mi SW 5.8 mph - N/A   Overcast
10:35 PM 32.5 °F 26.2 °F 20.1 °F 60% 30.22 in 10.0 mi SW 6.9 mph - N/A   Overcast
10:55 PM 32.5 °F 27.1 °F 21.0 °F 63% 30.21 in 10.0 mi SW 5.8 mph - N/A   Overcast
11:15 PM 32.5 °F 27.1 °F 21.0 °F 63% 30.21 in 10.0 mi WSW 5.8 mph - N/A   Overcast
11:35 PM 32.5 °F 26.2 °F 20.1 °F 60% 30.21 in 10.0 mi SW 6.9 mph - N/A   Overcast
11:55 PM 32.5 °F 27.1 °F 19.6 °F 59% 30.21 in 10.0 mi SW 5.8 mph - N/A   Overcast